createdAt,value
2023-02-27T00:01:37.315Z,3.50
2023-02-27T00:04:24.814Z,3.25
2023-02-27T00:07:12.196Z,2.78
2023-02-27T00:10:00.799Z,3.10
2023-02-27T00:12:49.040Z,3.13
2023-02-27T00:15:38.581Z,2.83
2023-02-27T00:18:26.596Z,3.53
2023-02-27T00:21:14.374Z,3.30
2023-02-27T00:24:02.568Z,3.40
2023-02-27T00:26:51.856Z,2.90
2023-02-27T00:29:41.233Z,3.55
2023-02-27T00:32:29.885Z,3.63
2023-02-27T00:35:17.238Z,3.58
2023-02-27T00:38:05.141Z,3.85
2023-02-27T00:40:52.873Z,3.25
2023-02-27T00:43:42.222Z,3.55
2023-02-27T00:46:29.817Z,3.20
2023-02-27T00:49:17.679Z,3.20
2023-02-27T00:52:07.086Z,3.25
2023-02-27T00:54:54.976Z,3.45
2023-02-27T00:57:43.018Z,3.67
2023-02-27T01:00:32.666Z,2.70
2023-02-27T01:03:20.777Z,3.78
2023-02-27T01:06:08.343Z,4.32
2023-02-27T01:08:57.293Z,3.28
2023-02-27T01:11:45.417Z,3.72
2023-02-27T01:14:33.066Z,3.65
2023-02-27T01:17:22.227Z,3.58
2023-02-27T01:20:14.230Z,3.53
2023-02-27T01:23:02.088Z,3.97
2023-02-27T01:25:50.520Z,2.80
2023-02-27T01:28:38.387Z,3.33
2023-02-27T01:31:26.612Z,3.90
2023-02-27T01:34:17.564Z,3.70
2023-02-27T01:37:05.420Z,3.80
2023-02-27T01:39:53.268Z,3.33
2023-02-27T01:42:40.788Z,2.08
2023-02-27T01:45:33.467Z,3.47
2023-02-27T01:48:24.177Z,4.07
2023-02-27T01:51:19.349Z,4.00
2023-02-27T01:54:09.751Z,3.40
2023-02-27T01:56:58.297Z,2.50
2023-02-27T01:59:46.163Z,3.63
2023-02-27T02:02:40.600Z,2.95
2023-02-27T02:05:29.408Z,3.40
2023-02-27T02:08:21.508Z,3.35
2023-02-27T02:11:11.178Z,3.63
2023-02-27T02:14:02.810Z,3.78
2023-02-27T02:17:07.384Z,3.47
2023-02-27T02:20:19.223Z,3.83
2023-02-27T02:23:33.428Z,3.45
2023-02-27T02:26:33.231Z,3.10
2023-02-27T02:29:48.554Z,3.88
2023-02-27T02:32:48.115Z,3.17
2023-02-27T02:36:00.053Z,3.70
2023-02-27T02:38:58.789Z,3.67
2023-02-27T02:41:59.852Z,3.20
2023-02-27T02:45:05.508Z,3.30
2023-02-27T02:48:05.160Z,2.85
2023-02-27T02:51:00.116Z,3.95
2023-02-27T02:53:53.552Z,3.20
2023-02-27T02:56:46.165Z,3.60
2023-02-27T02:59:39.481Z,3.08
2023-02-27T03:02:30.819Z,3.60
2023-02-27T03:05:25.464Z,3.40
2023-02-27T03:08:17.688Z,3.28
2023-02-27T03:11:08.628Z,2.95
2023-02-27T03:14:01.555Z,3.22
2023-02-27T03:16:53.582Z,3.45
2023-02-27T03:19:46.624Z,3.50
2023-02-27T03:22:39.394Z,3.80
2023-02-27T03:25:29.865Z,3.53
2023-02-27T03:28:24.897Z,2.97
2023-02-27T03:31:27.245Z,3.33
2023-02-27T03:34:20.820Z,3.40
2023-02-27T03:40:13.289Z,3.33
2023-02-27T03:43:10.132Z,3.28
2023-02-27T03:46:11.644Z,3.40
2023-02-27T03:49:00.637Z,2.25
2023-02-27T03:51:48.602Z,3.78
2023-02-27T03:54:41.189Z,3.20
2023-02-27T03:57:30.973Z,3.65
2023-02-27T04:00:21.269Z,3.80
2023-02-27T04:03:10.625Z,3.00
2023-02-27T04:06:18.182Z,3.47
2023-02-27T04:09:10.176Z,3.25
2023-02-27T04:12:16.071Z,3.42
2023-02-27T04:15:11.153Z,3.20
2023-02-27T04:18:12.378Z,3.28
2023-02-27T04:21:08.152Z,3.30
2023-02-27T04:24:05.787Z,3.13
2023-02-27T04:26:57.939Z,4.75
2023-02-27T04:29:56.857Z,3.95
2023-02-27T04:32:51.730Z,3.83
2023-02-27T04:35:45.227Z,4.03
2023-02-27T04:38:40.710Z,4.07
2023-02-27T04:41:32.177Z,3.30
2023-02-27T04:44:22.060Z,3.70
2023-02-27T04:47:13.126Z,3.20
2023-02-27T04:50:05.751Z,3.13
2023-02-27T04:52:58.590Z,3.40
2023-02-27T04:55:51.732Z,3.78
2023-02-27T04:58:46.549Z,3.83
2023-02-27T05:01:40.011Z,3.90
2023-02-27T05:07:22.046Z,3.58
2023-02-27T05:10:16.679Z,3.70
2023-02-27T05:13:11.549Z,3.17
2023-02-27T05:16:04.877Z,4.50
2023-02-27T05:21:47.150Z,3.70
2023-02-27T05:24:41.166Z,4.00
2023-02-27T05:27:37.434Z,3.35
2023-02-27T05:30:33.317Z,4.13
2023-02-27T05:33:27.307Z,3.95
2023-02-27T05:36:19.811Z,3.83
2023-02-27T05:39:10.328Z,3.60
2023-02-27T05:42:02.266Z,2.95
2023-02-27T05:44:59.110Z,3.80
2023-02-27T05:47:56.675Z,3.72
2023-02-27T05:50:45.544Z,3.60
2023-02-27T05:53:36.733Z,3.15
2023-02-27T05:56:28.506Z,3.10
2023-02-27T05:59:20.745Z,3.60
2023-02-27T06:02:08.464Z,3.20
2023-02-27T06:04:57.920Z,3.47
2023-02-27T06:07:45.562Z,3.10
2023-02-27T06:10:33.405Z,3.65
2023-02-27T06:13:20.877Z,3.58
2023-02-27T06:16:12.920Z,3.72
2023-02-27T06:19:04.846Z,2.97
2023-02-27T06:21:53.730Z,3.50
2023-02-27T06:24:41.504Z,2.95
2023-02-27T06:27:28.830Z,3.47
2023-02-27T06:30:17.177Z,3.92
2023-02-27T06:33:05.666Z,2.33
2023-02-27T06:35:54.284Z,3.55
2023-02-27T06:38:43.337Z,3.70
2023-02-27T06:41:30.832Z,3.10
2023-02-27T06:44:19.621Z,3.88
2023-02-27T06:47:07.681Z,3.78
2023-02-27T06:49:55.362Z,3.70
2023-02-27T06:52:43.535Z,3.50
2023-02-27T06:55:32.501Z,3.30
2023-02-27T06:58:20.650Z,2.67
2023-02-27T07:01:08.421Z,3.58
2023-02-27T07:03:56.318Z,3.35
2023-02-27T07:07:36.130Z,3.30
2023-02-27T07:09:56.837Z,3.80
2023-02-27T07:12:46.089Z,3.58
2023-02-27T07:15:33.801Z,3.47
2023-02-27T07:18:21.401Z,4.03
2023-02-27T07:21:08.969Z,3.53
2023-02-27T07:23:56.573Z,3.50
2023-02-27T07:26:44.266Z,2.95
2023-02-27T07:29:33.450Z,3.15
2023-02-27T07:32:21.064Z,3.47
2023-02-27T07:35:12.094Z,3.42
2023-02-27T07:37:59.633Z,3.65
2023-02-27T07:40:47.585Z,3.78
2023-02-27T07:43:35.452Z,3.50
2023-02-27T07:46:27.838Z,3.35
2023-02-27T07:49:15.813Z,3.28
2023-02-27T07:52:03.205Z,3.10
2023-02-27T07:54:50.998Z,3.40
2023-02-27T07:57:38.766Z,3.63
2023-02-27T08:00:26.861Z,3.58
2023-02-27T08:03:15.814Z,3.45
2023-02-27T08:06:03.395Z,2.83
2023-02-27T08:08:50.392Z,4.32
2023-02-27T08:11:37.445Z,2.65
2023-02-27T08:14:24.743Z,2.42
2023-02-27T08:17:12.224Z,2.45
2023-02-27T08:20:00.923Z,3.55
2023-02-27T08:22:47.814Z,3.30
2023-02-27T08:25:34.966Z,3.47
2023-02-27T08:28:22.013Z,3.08
2023-02-27T08:31:09.202Z,4.03
2023-02-27T08:34:04.535Z,4.20
2023-02-27T08:36:58.393Z,4.30
2023-02-27T08:39:45.550Z,3.28
2023-02-27T08:42:32.620Z,3.22
2023-02-27T08:45:19.603Z,3.53
2023-02-27T08:48:07.106Z,3.88
2023-02-27T08:50:57.401Z,4.65
2023-02-27T08:53:46.593Z,4.47
2023-02-27T08:56:35.151Z,4.07
2023-02-27T08:59:22.427Z,4.10
2023-02-27T09:02:10.753Z,3.97
2023-02-27T09:04:58.170Z,3.67
2023-02-27T09:07:45.576Z,4.25
2023-02-27T09:10:34.537Z,4.30
2023-02-27T09:13:23.388Z,3.83
2023-02-27T09:16:10.765Z,3.78
2023-02-27T09:18:57.556Z,4.43
2023-02-27T09:21:44.590Z,3.60
2023-02-27T09:24:32.139Z,3.75
2023-02-27T09:27:20.577Z,4.65
2023-02-27T09:30:10.648Z,3.47
2023-02-27T09:32:57.831Z,4.00
2023-02-27T09:35:44.791Z,4.25
2023-02-27T09:38:31.917Z,2.95
2023-02-27T09:41:34.204Z,5.22
2023-02-27T09:44:45.175Z,2.88
2023-02-27T09:48:13.076Z,4.03
2023-02-27T09:51:01.321Z,5.10
2023-02-27T09:53:52.581Z,4.93
2023-02-27T09:56:47.392Z,4.85
2023-02-27T09:59:43.950Z,5.32
2023-02-27T10:02:45.210Z,4.57
2023-02-27T10:05:40.178Z,3.85
2023-02-27T10:08:36.418Z,4.25
2023-02-27T10:11:31.715Z,5.15
2023-02-27T10:14:29.770Z,4.50
2023-02-27T10:17:25.812Z,4.88
2023-02-27T10:20:24.528Z,4.57
2023-02-27T10:23:17.777Z,4.55
2023-02-27T10:26:05.971Z,5.05
2023-02-27T10:28:54.005Z,5.47
2023-02-27T10:31:42.601Z,4.63
2023-02-27T10:34:36.165Z,4.60
2023-02-27T10:37:27.672Z,4.05
2023-02-27T10:40:17.957Z,3.13
2023-02-27T10:43:07.646Z,4.55
2023-02-27T10:46:01.198Z,3.80
2023-02-27T10:48:51.860Z,4.15
2023-02-27T10:51:40.598Z,3.83
2023-02-27T10:54:30.005Z,4.25
2023-02-27T10:57:27.739Z,3.40
2023-02-27T11:00:31.761Z,2.47
2023-02-27T11:03:22.215Z,2.33
2023-02-27T11:06:26.271Z,3.20
2023-02-27T11:09:25.185Z,2.55
2023-02-27T11:12:23.009Z,2.67
2023-02-27T11:15:28.947Z,2.33
2023-02-27T11:18:26.408Z,3.13
2023-02-27T11:21:21.097Z,2.63
2023-02-27T11:24:21.910Z,2.80
2023-02-27T11:27:26.831Z,2.42
2023-02-27T11:30:27.276Z,3.17
2023-02-27T11:33:20.869Z,2.30
2023-02-27T11:36:09.241Z,2.28
2023-02-27T11:38:59.906Z,2.53
2023-02-27T11:41:49.650Z,2.53
2023-02-27T11:44:51.003Z,2.53
2023-02-27T11:47:44.065Z,2.58
2023-02-27T11:50:52.252Z,3.17
2023-02-27T11:54:03.785Z,2.65
2023-02-27T11:56:56.216Z,2.45
2023-02-27T11:59:48.207Z,1.88
2023-02-27T12:02:45.410Z,2.67
2023-02-27T12:05:39.511Z,2.25
2023-02-27T12:08:33.866Z,1.60
2023-02-27T12:11:28.546Z,2.20
2023-02-27T12:14:22.848Z,2.40
2023-02-27T12:17:17.846Z,2.20
2023-02-27T12:20:20.667Z,2.10
2023-02-27T12:23:20.342Z,2.20
2023-02-27T12:26:15.790Z,1.90
2023-02-27T12:29:10.828Z,2.22
2023-02-27T12:32:03.883Z,2.20
2023-02-27T12:34:55.975Z,2.35
2023-02-27T12:37:43.964Z,2.10
2023-02-27T12:40:40.861Z,2.30
2023-02-27T12:43:38.828Z,2.50
2023-02-27T12:46:37.220Z,2.20
2023-02-27T12:49:43.450Z,2.40
2023-02-27T12:52:39.765Z,2.38
2023-02-27T12:55:30.036Z,2.42
2023-02-27T12:58:29.338Z,2.70
2023-02-27T13:01:33.193Z,2.15
2023-02-27T13:04:30.907Z,2.42
2023-02-27T13:07:26.314Z,2.75
2023-02-27T13:10:19.968Z,2.88
2023-02-27T13:13:17.985Z,3.00
2023-02-27T13:16:13.707Z,2.55
2023-02-27T13:19:06.648Z,2.65
2023-02-27T13:21:59.260Z,2.42
2023-02-27T13:24:53.046Z,2.15
2023-02-27T13:27:47.233Z,2.28
2023-02-27T13:30:39.921Z,2.00
2023-02-27T13:33:31.660Z,2.67
2023-02-27T13:36:26.468Z,2.83
2023-02-27T13:39:44.130Z,2.28
2023-02-27T13:42:53.552Z,2.85
2023-02-27T13:45:57.055Z,2.50
2023-02-27T13:48:49.644Z,3.13
2023-02-27T13:51:47.373Z,1.77
2023-02-27T13:54:42.054Z,2.90
2023-02-27T13:57:34.590Z,3.38
2023-02-27T14:00:24.527Z,3.33
2023-02-27T14:03:22.491Z,3.17
2023-02-27T14:06:13.826Z,2.60
2023-02-27T14:09:14.400Z,3.05
2023-02-27T14:12:04.931Z,3.40
2023-02-27T14:14:54.057Z,3.08
2023-02-27T14:17:49.548Z,3.47
2023-02-27T14:20:53.865Z,3.50
2023-02-27T14:23:41.599Z,3.38
2023-02-27T14:26:32.728Z,3.30
2023-02-27T14:29:26.996Z,3.22
2023-02-27T14:32:20.957Z,3.10
2023-02-27T14:35:08.995Z,2.58
2023-02-27T14:37:59.113Z,3.33
2023-02-27T14:41:08.607Z,3.47
2023-02-27T14:43:57.743Z,3.58
2023-02-27T14:46:45.700Z,2.78
2023-02-27T14:49:36.946Z,3.10
2023-02-27T14:52:26.703Z,3.65
2023-02-27T14:55:28.889Z,3.60
2023-02-27T14:58:20.049Z,3.03
2023-02-27T15:01:11.444Z,3.10
2023-02-27T15:04:00.552Z,3.50
2023-02-27T15:06:51.725Z,3.20
2023-02-27T15:09:45.055Z,3.50
2023-02-27T15:12:38.061Z,3.35
2023-02-27T15:15:25.806Z,3.15
2023-02-27T15:18:16.762Z,3.05
2023-02-27T15:21:04.368Z,3.38
2023-02-27T15:24:01.547Z,3.83
2023-02-27T15:26:52.668Z,3.53
2023-02-27T15:29:43.971Z,3.05
2023-02-27T15:32:34.639Z,3.28
2023-02-27T15:35:25.110Z,3.22
2023-02-27T15:38:25.706Z,3.53
2023-02-27T15:41:15.927Z,3.30
2023-02-27T15:44:04.915Z,3.35
2023-02-27T15:46:54.771Z,3.00
2023-02-27T15:49:43.618Z,3.30
2023-02-27T15:52:40.206Z,1.95
2023-02-27T15:55:31.681Z,3.80
2023-02-27T15:58:26.077Z,3.72
2023-02-27T16:01:20.893Z,3.53
2023-02-27T16:04:21.813Z,3.25
2023-02-27T16:07:17.982Z,2.30
2023-02-27T16:10:11.807Z,3.33
2023-02-27T16:12:59.402Z,3.05
2023-02-27T16:16:00.553Z,3.33
2023-02-27T16:18:50.213Z,3.60
2023-02-27T16:21:39.182Z,3.45
2023-02-27T16:24:32.869Z,3.42
2023-02-27T16:27:25.741Z,3.63
2023-02-27T16:30:17.877Z,3.85
2023-02-27T16:33:12.188Z,3.75
2023-02-27T16:36:19.013Z,3.55
2023-02-27T16:39:09.213Z,3.20
2023-02-27T16:41:58.946Z,3.58
2023-02-27T16:44:46.505Z,3.28
2023-02-27T16:47:34.224Z,3.42
2023-02-27T16:50:25.168Z,3.53
2023-02-27T16:53:13.039Z,3.67
2023-02-27T16:56:02.652Z,3.80
2023-02-27T16:58:50.811Z,3.78
2023-02-27T17:01:38.226Z,3.33
2023-02-27T17:04:27.367Z,3.25
2023-02-27T17:07:17.091Z,3.53
2023-02-27T17:10:05.192Z,3.70
2023-02-27T17:12:54.609Z,3.70
2023-02-27T17:15:42.182Z,3.00
2023-02-27T17:18:33.396Z,3.38
2023-02-27T17:21:21.250Z,3.50
2023-02-27T17:24:11.923Z,3.92
2023-02-27T17:27:02.176Z,3.20
2023-02-27T17:29:51.632Z,3.53
2023-02-27T17:32:39.105Z,3.97
2023-02-27T17:35:26.987Z,3.58
2023-02-27T17:38:14.798Z,3.88
2023-02-27T17:41:07.434Z,4.20
2023-02-27T17:43:56.750Z,4.25
2023-02-27T17:46:48.642Z,3.80
2023-02-27T17:49:36.181Z,4.07
2023-02-27T17:52:23.980Z,4.47
2023-02-27T17:55:13.034Z,3.78
2023-02-27T17:58:00.981Z,4.07
2023-02-27T18:00:48.199Z,4.03
2023-02-27T18:03:37.433Z,3.72
2023-02-27T18:06:26.232Z,4.60
2023-02-27T18:09:14.328Z,4.75
2023-02-27T18:12:02.341Z,4.32
2023-02-27T18:14:49.769Z,5.00
2023-02-27T18:17:39.808Z,4.70
2023-02-27T18:20:33.207Z,5.10
2023-02-27T18:23:24.298Z,4.47
2023-02-27T18:26:28.993Z,4.97
2023-02-27T18:29:19.886Z,4.00
2023-02-27T18:32:13.441Z,4.53
2023-02-27T18:37:59.278Z,4.15
2023-02-27T18:40:48.616Z,3.77
2023-02-27T18:43:41.508Z,4.40
2023-02-27T18:46:33.438Z,4.20
2023-02-27T18:49:24.542Z,4.10
2023-02-27T18:52:15.197Z,3.60
2023-02-27T18:55:11.577Z,4.32
2023-02-27T18:58:05.178Z,4.47
2023-02-27T19:00:59.080Z,4.72
2023-02-27T19:03:49.576Z,5.78
2023-02-27T19:06:43.526Z,5.20
2023-02-27T19:09:34.976Z,4.75
2023-02-27T19:12:27.733Z,4.63
2023-02-27T19:15:18.390Z,4.93
2023-02-27T19:18:08.965Z,5.55
2023-02-27T19:21:00.041Z,3.17
2023-02-27T19:23:52.218Z,4.47
2023-02-27T19:26:42.701Z,4.63
2023-02-27T19:29:34.363Z,4.22
2023-02-27T19:32:26.887Z,4.90
2023-02-27T19:35:19.935Z,4.93
2023-02-27T19:38:09.548Z,4.72
2023-02-27T19:41:02.377Z,4.80
2023-02-27T19:43:55.833Z,4.78
2023-02-27T19:46:52.779Z,5.10
2023-02-27T19:49:44.525Z,4.18
2023-02-27T19:52:40.031Z,3.40
2023-02-27T19:55:29.685Z,4.22
2023-02-27T19:58:20.327Z,4.57
2023-02-27T20:01:11.232Z,4.78
2023-02-27T20:04:05.706Z,4.20
2023-02-27T20:06:59.321Z,4.65
2023-02-27T20:09:51.279Z,3.83
2023-02-27T20:12:44.400Z,4.78
2023-02-27T20:15:34.502Z,4.40
2023-02-27T20:18:24.953Z,4.28
2023-02-27T20:21:18.620Z,4.15
2023-02-27T20:24:11.429Z,4.30
2023-02-27T20:27:01.384Z,4.00
2023-02-27T20:29:55.651Z,3.53
2023-02-27T20:32:47.069Z,2.88
2023-02-27T20:35:41.717Z,3.65
2023-02-27T20:38:34.436Z,3.45
2023-02-27T20:41:29.627Z,3.97
2023-02-27T20:44:19.890Z,3.55
2023-02-27T20:47:11.786Z,3.50
2023-02-27T20:50:02.267Z,3.50
2023-02-27T20:53:00.198Z,3.20
2023-02-27T20:55:52.275Z,2.85
2023-02-27T20:58:42.477Z,3.00
2023-02-27T21:01:35.061Z,1.67
2023-02-27T21:04:27.400Z,2.80
2023-02-27T21:07:21.150Z,3.72
2023-02-27T21:10:13.207Z,3.28
2023-02-27T21:13:06.632Z,3.50
2023-02-27T21:15:57.062Z,2.58
2023-02-27T21:18:51.609Z,2.75
2023-02-27T21:21:43.094Z,2.70
2023-02-27T21:24:36.529Z,2.53
2023-02-27T21:27:28.985Z,2.95
2023-02-27T21:30:22.403Z,2.60
2023-02-27T21:33:12.583Z,2.53
2023-02-27T21:36:03.399Z,3.13
2023-02-27T21:38:57.273Z,2.72
2023-02-27T21:41:48.475Z,2.58
2023-02-27T21:44:37.955Z,2.58
2023-02-27T21:47:31.209Z,2.55
2023-02-27T21:50:23.415Z,2.78
2023-02-27T21:53:12.491Z,2.30
2023-02-27T21:56:08.532Z,2.28
2023-02-27T21:59:01.618Z,2.47
2023-02-27T22:01:50.991Z,2.47
2023-02-27T22:04:40.708Z,2.67
2023-02-27T22:07:27.945Z,2.75
2023-02-27T22:10:16.501Z,2.10
2023-02-27T22:13:03.764Z,2.50
2023-02-27T22:15:51.254Z,2.60
2023-02-27T22:18:40.592Z,2.67
2023-02-27T22:21:29.415Z,2.80
2023-02-27T22:24:17.994Z,2.35
2023-02-27T22:27:06.098Z,2.47
2023-02-27T22:29:53.526Z,3.10
2023-02-27T22:32:42.339Z,2.90
2023-02-27T22:35:29.599Z,3.13
2023-02-27T22:38:18.590Z,2.60
2023-02-27T22:41:08.757Z,3.25
2023-02-27T22:43:56.837Z,2.72
2023-02-27T22:46:47.177Z,2.90
2023-02-27T22:49:35.345Z,2.72
2023-02-27T22:52:22.594Z,2.42
2023-02-27T22:55:12.382Z,2.95
2023-02-27T22:58:03.211Z,3.30
2023-02-27T23:00:50.472Z,3.00
2023-02-27T23:03:38.423Z,3.10
2023-02-27T23:06:29.118Z,2.55
2023-02-27T23:09:20.618Z,2.75
2023-02-27T23:12:09.329Z,3.03
2023-02-27T23:14:57.773Z,3.70
2023-02-27T23:17:56.490Z,2.95
2023-02-27T23:20:46.020Z,3.10
2023-02-27T23:23:33.499Z,3.28
2023-02-27T23:26:21.652Z,2.97
2023-02-27T23:29:11.914Z,2.65
2023-02-27T23:31:59.248Z,3.20
2023-02-27T23:34:49.593Z,3.17
2023-02-27T23:37:37.772Z,3.20
2023-02-27T23:40:26.715Z,2.88
2023-02-27T23:43:15.549Z,2.83
2023-02-27T23:46:10.273Z,3.28
2023-02-27T23:48:58.545Z,2.67
2023-02-27T23:51:46.480Z,3.20
2023-02-27T23:54:33.891Z,3.35
2023-02-27T23:57:21.468Z,3.30
